createdAt,value
2018-12-20T00:01:37.415Z,95859.67
2018-12-20T00:04:03.727Z,95861.41
2018-12-20T00:06:30.061Z,95856.63
2018-12-20T00:08:56.342Z,95855.64
2018-12-20T00:11:22.742Z,95852.61
2018-12-20T00:13:49.109Z,95853.14
2018-12-20T00:16:15.457Z,95854.26
2018-12-20T00:18:41.842Z,95862.31
2018-12-20T00:21:08.179Z,95871.67
2018-12-20T00:23:34.622Z,95863.78
2018-12-20T00:26:00.922Z,95870.77
2018-12-20T00:28:27.261Z,95869.28
2018-12-20T00:30:53.653Z,95871.84
2018-12-20T00:33:19.999Z,95872.20
2018-12-20T00:35:46.365Z,95879.00
2018-12-20T00:38:12.673Z,95878.35
2018-12-20T00:40:39.054Z,95891.23
2018-12-20T00:43:05.426Z,95887.63
2018-12-20T00:45:31.829Z,95892.23
2018-12-20T00:47:58.037Z,95893.31
2018-12-20T00:50:24.479Z,95892.13
2018-12-20T00:52:50.757Z,95891.75
2018-12-20T00:55:17.073Z,95891.50
2018-12-20T00:57:43.425Z,95893.59
2018-12-20T01:00:09.819Z,95895.23
2018-12-20T01:02:36.094Z,95900.83
2018-12-20T01:05:02.612Z,95899.19
2018-12-20T01:07:29.142Z,95897.45
2018-12-20T01:09:55.510Z,95895.41
2018-12-20T01:12:21.864Z,95899.75
2018-12-20T01:14:48.314Z,95896.23
2018-12-20T01:17:14.522Z,95895.23
2018-12-20T01:19:40.846Z,95897.18
2018-12-20T01:22:07.399Z,95894.58
2018-12-20T01:24:33.579Z,95893.12
2018-12-20T01:27:00.044Z,95891.20
2018-12-20T01:29:26.405Z,95888.05
2018-12-20T01:31:52.636Z,95892.04
2018-12-20T01:34:18.971Z,95881.94
2018-12-20T01:36:45.338Z,95881.28
2018-12-20T01:39:11.768Z,95881.62
2018-12-20T01:41:38.165Z,95878.16
2018-12-20T01:44:04.370Z,95874.06
2018-12-20T01:46:30.672Z,95871.73
2018-12-20T01:48:57.110Z,95868.33
2018-12-20T01:51:23.442Z,95866.98
2018-12-20T01:53:50.842Z,95868.09
2018-12-20T01:56:16.154Z,95863.41
2018-12-20T01:58:42.605Z,95857.23
2018-12-20T02:01:09.118Z,95851.91
2018-12-20T02:03:35.223Z,95848.23
2018-12-20T02:06:01.518Z,95847.58
2018-12-20T02:08:27.868Z,95847.23
2018-12-20T02:10:54.206Z,95845.33
2018-12-20T02:13:20.504Z,95839.63
2018-12-20T02:15:47.007Z,95832.80
2018-12-20T02:18:13.403Z,95843.20
2018-12-20T02:20:39.589Z,95838.23
2018-12-20T02:23:05.940Z,95834.41
2018-12-20T02:25:32.430Z,95833.88
2018-12-20T02:27:58.836Z,95836.92
2018-12-20T02:30:24.956Z,95836.73
2018-12-20T02:32:51.439Z,95840.94
2018-12-20T02:35:17.671Z,95836.47
2018-12-20T02:37:44.058Z,95844.17
2018-12-20T02:40:10.448Z,95843.54
2018-12-20T02:42:36.684Z,95836.20
2018-12-20T02:45:10.816Z,95833.07
2018-12-20T02:47:29.614Z,95826.69
2018-12-20T02:49:55.701Z,95835.41
2018-12-20T02:52:22.063Z,95830.62
2018-12-20T02:54:48.424Z,95836.33
2018-12-20T02:57:14.863Z,95833.20
2018-12-20T02:59:41.044Z,95838.08
2018-12-20T03:02:07.477Z,95835.85
2018-12-20T03:04:33.788Z,95839.83
2018-12-20T03:07:00.117Z,95843.50
2018-12-20T03:09:26.430Z,95845.51
2018-12-20T03:11:52.868Z,95847.25
2018-12-20T03:14:19.276Z,95841.91
2018-12-20T03:16:45.556Z,95844.30
2018-12-20T03:19:11.894Z,95848.34
2018-12-20T03:21:38.284Z,95850.92
2018-12-20T03:24:04.677Z,95846.42
2018-12-20T03:26:30.924Z,95850.28
2018-12-20T03:28:57.534Z,95852.67
2018-12-20T03:31:23.626Z,95851.19
2018-12-20T03:33:50.437Z,95849.26
2018-12-20T03:36:16.441Z,95850.28
2018-12-20T03:38:42.842Z,95847.89
2018-12-20T03:41:09.101Z,95849.07
2018-12-20T03:43:35.500Z,95847.70
2018-12-20T03:46:01.856Z,95840.06
2018-12-20T03:48:28.166Z,95840.33
2018-12-20T03:50:54.508Z,95843.92
2018-12-20T03:53:21.058Z,95849.06
2018-12-20T03:55:47.309Z,95850.35
2018-12-20T03:58:13.644Z,95853.75
2018-12-20T04:00:40.130Z,95852.16
2018-12-20T04:03:06.724Z,95850.60
2018-12-20T04:05:33.003Z,95856.09
2018-12-20T04:07:59.605Z,95848.03
2018-12-20T04:10:25.757Z,95844.26
2018-12-20T04:12:52.077Z,95844.89
2018-12-20T04:15:18.627Z,95848.11
2018-12-20T04:17:45.140Z,95847.34
2018-12-20T04:20:11.350Z,95855.70
2018-12-20T04:22:37.695Z,95853.56
2018-12-20T04:25:03.991Z,95850.34
2018-12-20T04:27:31.459Z,95856.20
2018-12-20T04:29:56.728Z,95856.13
2018-12-20T04:32:23.097Z,95852.78
2018-12-20T04:34:49.599Z,95857.27
2018-12-20T04:37:16.060Z,95860.03
2018-12-20T04:39:42.209Z,95858.54
2018-12-20T04:42:08.755Z,95862.58
2018-12-20T04:44:35.161Z,95862.47
2018-12-20T04:47:01.301Z,95869.08
2018-12-20T04:49:27.673Z,95866.82
2018-12-20T04:51:54.207Z,95869.91
2018-12-20T04:54:20.860Z,95871.72
2018-12-20T04:56:47.163Z,95877.08
2018-12-20T04:59:13.591Z,95871.47
2018-12-20T05:01:39.893Z,95871.52
2018-12-20T05:04:06.629Z,95880.09
2018-12-20T05:06:32.742Z,95879.17
2018-12-20T05:08:59.078Z,95883.55
2018-12-20T05:11:25.487Z,95880.72
2018-12-20T05:13:51.788Z,95881.09
2018-12-20T05:16:18.167Z,95880.52
2018-12-20T05:18:44.595Z,95886.18
2018-12-20T05:21:11.036Z,95882.23
2018-12-20T05:23:37.323Z,95886.67
2018-12-20T05:26:03.842Z,95882.66
2018-12-20T05:28:30.010Z,95886.92
2018-12-20T05:30:56.483Z,95888.22
2018-12-20T05:33:22.709Z,95889.30
2018-12-20T05:35:49.213Z,95884.58
2018-12-20T05:38:15.547Z,95878.58
2018-12-20T05:40:42.027Z,95878.84
2018-12-20T05:43:08.348Z,95884.58
2018-12-20T05:45:34.665Z,95883.57
2018-12-20T05:48:01.104Z,95891.27
2018-12-20T05:50:27.341Z,95890.49
2018-12-20T05:52:53.695Z,95893.50
2018-12-20T05:55:20.205Z,95894.23
2018-12-20T05:57:46.488Z,95902.19
2018-12-20T06:00:13.192Z,95908.59
2018-12-20T06:02:39.604Z,95913.33
2018-12-20T06:05:07.847Z,95906.81
2018-12-20T06:07:32.231Z,95907.59
2018-12-20T06:09:58.472Z,95905.59
2018-12-20T06:12:24.919Z,95908.59
2018-12-20T06:14:51.177Z,95907.89
2018-12-20T06:17:17.662Z,95900.73
2018-12-20T06:19:44.053Z,95899.56
2018-12-20T06:22:10.374Z,95896.41
2018-12-20T06:24:36.684Z,95895.95
2018-12-20T06:27:03.114Z,95895.58
2018-12-20T06:29:29.455Z,95884.02
2018-12-20T06:31:56.186Z,95888.88
2018-12-20T06:34:22.595Z,95892.63
2018-12-20T06:36:48.947Z,95903.31
2018-12-20T06:39:15.276Z,95905.19
2018-12-20T06:41:41.681Z,95900.90
2018-12-20T06:44:08.065Z,95906.52
2018-12-20T06:46:34.444Z,95904.56
2018-12-20T06:49:00.867Z,95907.69
2018-12-20T06:51:27.186Z,95907.18
2018-12-20T06:53:53.607Z,95909.18
2018-12-20T06:56:19.939Z,95917.20
2018-12-20T06:58:46.355Z,95916.21
2018-12-20T07:01:12.661Z,95915.92
2018-12-20T07:03:39.035Z,95929.12
2018-12-20T07:06:05.458Z,95928.45
2018-12-20T07:08:31.897Z,95922.87
2018-12-20T07:10:58.347Z,95931.70
2018-12-20T07:13:24.702Z,95937.28
2018-12-20T07:15:51.085Z,95935.31
2018-12-20T07:18:17.594Z,95938.61
2018-12-20T07:20:43.942Z,95942.34
2018-12-20T07:23:10.330Z,95946.64
2018-12-20T07:25:39.251Z,95942.27
2018-12-20T07:28:05.548Z,95949.81
2018-12-20T07:30:31.921Z,95950.89
2018-12-20T07:32:58.278Z,95952.46
2018-12-20T07:35:25.007Z,95958.30
2018-12-20T07:37:51.400Z,95953.09
2018-12-20T07:40:17.777Z,95952.80
2018-12-20T07:42:44.144Z,95959.93
2018-12-20T07:45:10.561Z,95965.46
2018-12-20T07:47:36.888Z,95960.00
2018-12-20T07:50:03.374Z,95954.41
2018-12-20T07:52:29.755Z,95953.00
2018-12-20T07:54:56.146Z,95953.95
2018-12-20T07:57:22.574Z,95958.08
2018-12-20T07:59:48.970Z,95963.13
2018-12-20T08:02:15.423Z,95959.37
2018-12-20T08:04:41.857Z,95963.73
2018-12-20T08:07:08.232Z,95964.38
2018-12-20T08:09:34.562Z,95964.56
2018-12-20T08:12:01.908Z,95962.94
2018-12-20T08:14:28.249Z,95966.32
2018-12-20T08:16:54.614Z,95968.30
2018-12-20T08:19:21.067Z,95971.55
2018-12-20T08:21:47.539Z,95970.60
2018-12-20T08:24:13.877Z,95966.64
2018-12-20T08:26:40.238Z,95973.82
2018-12-20T08:29:06.646Z,95976.39
2018-12-20T08:31:33.128Z,95979.48
2018-12-20T08:33:59.665Z,95979.13
2018-12-20T08:36:26.057Z,95965.94
2018-12-20T08:38:52.404Z,95965.81
2018-12-20T08:41:18.781Z,95968.30
2018-12-20T08:43:45.214Z,95962.06
2018-12-20T08:46:11.505Z,95967.88
2018-12-20T08:48:37.924Z,95966.53
2018-12-20T08:51:04.262Z,95956.47
2018-12-20T08:53:30.653Z,95956.19
2018-12-20T08:55:56.995Z,95954.80
2018-12-20T08:58:23.419Z,95951.64
2018-12-20T09:00:49.788Z,95951.36
2018-12-20T09:03:16.119Z,95957.14
2018-12-20T09:05:42.465Z,95963.39
2018-12-20T09:08:08.865Z,95957.05
2018-12-20T09:10:35.351Z,95960.34
2018-12-20T09:13:09.328Z,95959.39
2018-12-20T09:15:28.183Z,95960.63
2018-12-20T09:17:54.639Z,95957.53
2018-12-20T09:20:20.961Z,95946.58
2018-12-20T09:22:48.303Z,95944.77
2018-12-20T09:25:13.703Z,95945.98
2018-12-20T09:27:40.109Z,95949.75
2018-12-20T09:30:06.552Z,95946.64
2018-12-20T09:32:32.896Z,95944.46
2018-12-20T09:34:59.403Z,95951.14
2018-12-20T09:37:25.941Z,95948.34
2018-12-20T09:39:52.265Z,95944.90
2018-12-20T09:42:18.781Z,95934.47
2018-12-20T09:44:45.176Z,95925.88
2018-12-20T09:47:12.190Z,95937.73
2018-12-20T09:49:37.994Z,95934.77
2018-12-20T09:52:04.503Z,95929.61
2018-12-20T09:54:30.805Z,95918.56
2018-12-20T09:56:57.215Z,95911.08
2018-12-20T09:59:23.623Z,95907.26
2018-12-20T10:01:49.996Z,95907.72
2018-12-20T10:04:16.379Z,95912.13
2018-12-20T10:06:42.723Z,95899.72
2018-12-20T10:09:09.072Z,95894.67
2018-12-20T10:11:35.456Z,95892.97
2018-12-20T10:14:01.787Z,95886.70
2018-12-20T10:16:28.167Z,95896.19
2018-12-20T10:18:54.505Z,95899.28
2018-12-20T10:21:21.945Z,95886.23
2018-12-20T10:23:47.344Z,95884.70
2018-12-20T10:26:13.711Z,95892.84
2018-12-20T10:28:40.135Z,95893.43
2018-12-20T10:31:06.530Z,95886.47
2018-12-20T10:33:32.829Z,95890.09
2018-12-20T10:35:59.171Z,95888.27
2018-12-20T10:38:25.503Z,95879.55
2018-12-20T10:40:51.913Z,95880.84
2018-12-20T10:43:18.243Z,95880.01
2018-12-20T10:45:44.579Z,95873.45
2018-12-20T10:48:10.961Z,95867.99
2018-12-20T10:50:37.316Z,95874.82
2018-12-20T10:53:03.652Z,95872.84
2018-12-20T10:55:30.101Z,95878.92
2018-12-20T10:57:56.517Z,95868.28
2018-12-20T11:00:23.889Z,95849.80
2018-12-20T11:02:50.237Z,95851.69
2018-12-20T11:05:16.577Z,95868.95
2018-12-20T11:07:42.976Z,95858.77
2018-12-20T11:10:09.326Z,95844.25
2018-12-20T11:12:35.694Z,95842.80
2018-12-20T11:15:02.058Z,95839.23
2018-12-20T11:17:28.384Z,95836.64
2018-12-20T11:19:54.744Z,95834.23
2018-12-20T11:22:21.121Z,95833.02
2018-12-20T11:24:47.515Z,95829.97
2018-12-20T11:27:16.187Z,95821.66
2018-12-20T11:29:42.509Z,95823.41
2018-12-20T11:32:08.906Z,95837.05
2018-12-20T11:34:35.236Z,95828.82
2018-12-20T11:37:01.661Z,95832.84
2018-12-20T11:39:28.029Z,95832.70
2018-12-20T11:41:54.431Z,95833.17
2018-12-20T11:44:20.788Z,95827.39
2018-12-20T11:46:49.043Z,95828.23
2018-12-20T11:49:13.560Z,95822.59
2018-12-20T11:51:39.946Z,95820.23
2018-12-20T11:54:06.261Z,95809.80
2018-12-20T11:56:32.643Z,95806.94
2018-12-20T11:58:59.027Z,95807.07
2018-12-20T12:01:25.555Z,95823.05
2018-12-20T12:03:57.344Z,95825.64
2018-12-20T12:06:18.284Z,95826.84
2018-12-20T12:08:44.735Z,95826.83
2018-12-20T12:11:11.082Z,95826.09
2018-12-20T12:13:37.408Z,95825.00
2018-12-20T12:16:03.804Z,95824.13
2018-12-20T12:18:30.135Z,95821.06
2018-12-20T12:20:56.520Z,95814.38
2018-12-20T12:23:22.863Z,95816.51
2018-12-20T12:25:49.192Z,95820.24
2018-12-20T12:28:15.595Z,95825.45
2018-12-20T12:30:41.983Z,95824.63
2018-12-20T12:33:08.359Z,95822.82
2018-12-20T12:35:34.725Z,95824.25
2018-12-20T12:38:01.136Z,95820.75
2018-12-20T12:40:27.488Z,95821.44
2018-12-20T12:42:53.881Z,95819.23
2018-12-20T12:45:20.225Z,95820.06
2018-12-20T12:47:46.631Z,95814.15
2018-12-20T12:50:12.942Z,95824.55
2018-12-20T12:52:39.286Z,95818.88
2018-12-20T12:55:05.620Z,95809.58
2018-12-20T12:57:32.008Z,95811.31
2018-12-20T13:00:00.616Z,95805.57
2018-12-20T13:02:26.963Z,95805.57
2018-12-20T13:04:53.295Z,95805.00
2018-12-20T13:07:19.733Z,95802.19
2018-12-20T13:09:46.096Z,95802.52
2018-12-20T13:12:12.515Z,95815.72
2018-12-20T13:14:38.856Z,95816.66
2018-12-20T13:17:05.225Z,95821.50
2018-12-20T13:19:31.682Z,95831.24
2018-12-20T13:21:58.025Z,95825.38
2018-12-20T13:24:24.435Z,95829.45
2018-12-20T13:26:53.052Z,95831.24
2018-12-20T13:29:19.487Z,95824.50
2018-12-20T13:31:45.882Z,95825.70
2018-12-20T13:34:12.214Z,95817.48
2018-12-20T13:36:38.552Z,95826.86
2018-12-20T13:39:04.973Z,95833.83
2018-12-20T13:41:31.424Z,95826.41
2018-12-20T13:43:57.783Z,95827.35
2018-12-20T13:46:24.129Z,95829.44
2018-12-20T13:48:50.541Z,95828.88
2018-12-20T13:51:16.875Z,95836.64
2018-12-20T13:53:43.247Z,95805.77
2018-12-20T13:56:09.599Z,95850.36
2018-12-20T13:58:37.728Z,95848.05
2018-12-20T14:01:02.383Z,95843.78
2018-12-20T14:03:28.896Z,95854.50
2018-12-20T14:05:55.215Z,95840.63
2018-12-20T14:08:21.557Z,95832.17
2018-12-20T14:10:48.329Z,95833.09
2018-12-20T14:13:14.712Z,95838.02
2018-12-20T14:15:41.073Z,95790.03
2018-12-20T14:18:07.513Z,95844.58
2018-12-20T14:20:33.959Z,95843.06
2018-12-20T14:23:00.379Z,95849.87
2018-12-20T14:25:26.705Z,95844.26
2018-12-20T14:27:53.036Z,95846.03
2018-12-20T14:30:19.417Z,95843.56
2018-12-20T14:32:45.727Z,95845.33
2018-12-20T14:35:12.058Z,95847.91
2018-12-20T14:37:38.472Z,95838.39
2018-12-20T14:40:04.893Z,95836.49
2018-12-20T14:42:31.326Z,95833.67
2018-12-20T14:44:57.652Z,95820.16
2018-12-20T14:47:24.002Z,95819.80
2018-12-20T14:49:50.330Z,95823.74
2018-12-20T14:52:16.749Z,95830.44
2018-12-20T14:54:43.104Z,95826.39
2018-12-20T14:57:09.449Z,95833.98
2018-12-20T14:59:35.961Z,95827.93
2018-12-20T15:02:02.343Z,95833.92
2018-12-20T15:04:28.738Z,95827.52
2018-12-20T15:06:55.071Z,95821.66
2018-12-20T15:09:21.478Z,95823.97
2018-12-20T15:11:47.833Z,95825.34
2018-12-20T15:14:14.193Z,95836.03
2018-12-20T15:16:40.633Z,95843.95
2018-12-20T15:19:06.972Z,95849.70
2018-12-20T15:21:33.309Z,95846.01
2018-12-20T15:23:59.636Z,95845.45
2018-12-20T15:26:25.995Z,95852.15
2018-12-20T15:28:52.324Z,95858.39
2018-12-20T15:31:18.792Z,95855.67
2018-12-20T15:33:45.133Z,95863.26
2018-12-20T15:36:11.443Z,95864.39
2018-12-20T15:38:37.785Z,95867.21
2018-12-20T15:41:04.173Z,95867.53
2018-12-20T15:43:30.523Z,95877.47
2018-12-20T15:45:56.868Z,95888.30
2018-12-20T15:48:23.219Z,95896.86
2018-12-20T15:50:49.680Z,95894.33
2018-12-20T15:53:16.006Z,95892.47
2018-12-20T15:55:53.017Z,95895.96
2018-12-20T15:58:20.173Z,95898.30
2018-12-20T16:00:45.732Z,95899.89
2018-12-20T16:03:12.222Z,95901.41
2018-12-20T16:05:38.602Z,95898.16
2018-12-20T16:08:04.971Z,95901.98
2018-12-20T16:10:31.316Z,95902.94
2018-12-20T16:12:57.639Z,95903.41
2018-12-20T16:15:24.019Z,95903.33
2018-12-20T16:17:50.679Z,95903.38
2018-12-20T16:20:17.019Z,95908.42
2018-12-20T16:22:43.371Z,95918.03
2018-12-20T16:25:09.753Z,95923.10
2018-12-20T16:27:36.096Z,95926.71
2018-12-20T16:30:02.434Z,95927.20
2018-12-20T16:32:28.762Z,95928.33
2018-12-20T16:34:55.151Z,95930.17
2018-12-20T16:37:21.685Z,95928.00
2018-12-20T16:39:48.098Z,95929.69
2018-12-20T16:42:14.413Z,95934.42
2018-12-20T16:44:40.780Z,95936.09
2018-12-20T16:47:07.232Z,95942.03
2018-12-20T16:49:33.552Z,95938.59
2018-12-20T16:51:59.925Z,95938.00
2018-12-20T16:54:26.279Z,95952.22
2018-12-20T16:56:52.633Z,95949.08
2018-12-20T16:59:18.967Z,95948.18
2018-12-20T17:01:45.295Z,95952.80
2018-12-20T17:04:11.680Z,95947.63
2018-12-20T17:06:38.026Z,95943.14
2018-12-20T17:09:04.379Z,95946.09
2018-12-20T17:11:30.720Z,95943.17
2018-12-20T17:13:57.071Z,95947.64
2018-12-20T17:16:23.406Z,95944.25
2018-12-20T17:18:49.764Z,95940.59
2018-12-20T17:21:16.179Z,95940.38
2018-12-20T17:23:42.504Z,95937.20
2018-12-20T17:26:08.863Z,95939.15
2018-12-20T17:28:35.192Z,95939.77
2018-12-20T17:31:01.539Z,95935.42
2018-12-20T17:33:27.873Z,95939.39
2018-12-20T17:35:54.251Z,95934.97
2018-12-20T17:38:20.580Z,95937.88
2018-12-20T17:40:46.962Z,95935.48
2018-12-20T17:43:13.295Z,95928.99
2018-12-20T17:45:39.626Z,95928.74
2018-12-20T17:48:05.968Z,95933.17
2018-12-20T17:50:32.315Z,95935.75
2018-12-20T17:52:58.720Z,95931.33
2018-12-20T17:55:25.082Z,95937.38
2018-12-20T17:57:51.458Z,95927.59
2018-12-20T18:00:17.759Z,95929.56
2018-12-20T18:02:44.120Z,95931.64
2018-12-20T18:05:10.590Z,95933.02
2018-12-20T18:07:36.960Z,95929.11
2018-12-20T18:10:03.449Z,95934.44
2018-12-20T18:12:29.884Z,95930.11
2018-12-20T18:14:56.216Z,95937.27
2018-12-20T18:17:22.701Z,95939.73
2018-12-20T18:19:49.036Z,95936.69
2018-12-20T18:22:15.338Z,95947.77
2018-12-20T18:24:41.662Z,95948.06
2018-12-20T18:27:08.006Z,95943.61
2018-12-20T18:29:34.369Z,95936.91
2018-12-20T18:32:00.745Z,95943.61
2018-12-20T18:34:27.059Z,95952.22
2018-12-20T18:36:53.412Z,95945.94
2018-12-20T18:39:19.801Z,95939.90
2018-12-20T18:41:46.260Z,95935.32
2018-12-20T18:44:12.798Z,95933.45
2018-12-20T18:46:39.065Z,95948.69
2018-12-20T18:49:05.395Z,95961.50
2018-12-20T18:51:31.761Z,95954.09
2018-12-20T18:53:58.225Z,95948.02
2018-12-20T18:56:24.566Z,95949.22
2018-12-20T18:58:50.904Z,95961.59
2018-12-20T19:01:17.230Z,95953.09
2018-12-20T19:03:43.586Z,95952.92
2018-12-20T19:06:09.948Z,95950.01
2018-12-20T19:08:36.350Z,95954.45
2018-12-20T19:11:02.758Z,95957.95
2018-12-20T19:13:29.200Z,95965.23
2018-12-20T19:15:55.494Z,95965.64
2018-12-20T19:18:21.896Z,95962.56
2018-12-20T19:20:48.263Z,95953.60
2018-12-20T19:23:14.692Z,95952.14
2018-12-20T19:25:41.065Z,95956.84
2018-12-20T19:28:07.398Z,95964.78
2018-12-20T19:30:33.799Z,95962.48
2018-12-20T19:33:00.161Z,95959.61
2018-12-20T19:35:26.545Z,95967.34
2018-12-20T19:37:52.922Z,95972.77
2018-12-20T19:40:19.299Z,95964.94
2018-12-20T19:42:45.717Z,95972.77
2018-12-20T19:45:12.109Z,95969.23
2018-12-20T19:47:38.453Z,95965.62
2018-12-20T19:50:05.273Z,95962.06
2018-12-20T19:52:31.269Z,95960.66
2018-12-20T19:54:57.620Z,95973.22
2018-12-20T19:57:24.021Z,95972.77
2018-12-20T19:59:50.363Z,95974.44
2018-12-20T20:02:16.785Z,95974.34
2018-12-20T20:04:43.146Z,95970.47
2018-12-20T20:07:09.530Z,95979.23
2018-12-20T20:09:35.853Z,95984.67
2018-12-20T20:12:02.231Z,95985.52
2018-12-20T20:14:28.615Z,95984.38
2018-12-20T20:16:55.009Z,95985.78
2018-12-20T20:19:21.413Z,95988.28
2018-12-20T20:21:47.743Z,95987.61
2018-12-20T20:24:14.143Z,95982.00
2018-12-20T20:26:40.540Z,95978.52
2018-12-20T20:29:06.940Z,95982.56
2018-12-20T20:31:33.272Z,95987.55
2018-12-20T20:33:59.654Z,95988.36
2018-12-20T20:36:25.988Z,95985.89
2018-12-20T20:38:52.340Z,95982.67
2018-12-20T20:41:18.774Z,95979.72
2018-12-20T20:43:45.235Z,95981.77
2018-12-20T20:46:11.795Z,95985.85
2018-12-20T20:48:38.127Z,95993.42
2018-12-20T20:51:04.458Z,95999.41
2018-12-20T20:53:30.852Z,96004.11
2018-12-20T20:55:57.181Z,95997.55
2018-12-20T20:58:23.659Z,96002.13
2018-12-20T21:00:49.919Z,96002.13
2018-12-20T21:03:16.389Z,95995.86
2018-12-20T21:05:42.721Z,95993.77
2018-12-20T21:08:09.127Z,95993.59
2018-12-20T21:10:35.482Z,95988.89
2018-12-20T21:13:01.854Z,95990.82
2018-12-20T21:15:28.248Z,95993.56
2018-12-20T21:17:54.626Z,95990.71
2018-12-20T21:20:20.950Z,95995.97
2018-12-20T21:22:47.331Z,95996.61
2018-12-20T21:25:13.661Z,95997.44
2018-12-20T21:27:40.046Z,95996.33
2018-12-20T21:30:06.532Z,95986.59
2018-12-20T21:32:32.755Z,95984.01
2018-12-20T21:34:59.141Z,95987.77
2018-12-20T21:37:25.502Z,95991.19
2018-12-20T21:39:51.858Z,95991.63
2018-12-20T21:42:18.242Z,95983.34
2018-12-20T21:44:44.579Z,95983.25
2018-12-20T21:47:10.925Z,95990.25
2018-12-20T21:49:37.267Z,95989.14
2018-12-20T21:52:03.663Z,95990.88
2018-12-20T21:54:29.999Z,95987.22
2018-12-20T21:56:56.323Z,95982.53
2018-12-20T21:59:22.729Z,95978.74
2018-12-20T22:01:49.161Z,95979.56
2018-12-20T22:04:15.487Z,95978.38
2018-12-20T22:06:41.876Z,95967.53
2018-12-20T22:09:08.214Z,95982.95
2018-12-20T22:11:34.595Z,95996.03
2018-12-20T22:14:00.998Z,95991.27
2018-12-20T22:16:27.335Z,95989.77
2018-12-20T22:18:53.761Z,95994.34
2018-12-20T22:21:20.091Z,95998.69
2018-12-20T22:23:46.525Z,95988.65
2018-12-20T22:26:12.905Z,95989.12
2018-12-20T22:28:39.263Z,95986.17
2018-12-20T22:31:05.661Z,95985.17
2018-12-20T22:33:32.060Z,95989.03
2018-12-20T22:35:58.441Z,95994.80
2018-12-20T22:38:24.779Z,95988.39
2018-12-20T22:40:51.132Z,95982.47
2018-12-20T22:43:17.463Z,95978.16
2018-12-20T22:45:43.923Z,95977.25
2018-12-20T22:48:10.240Z,95980.08
2018-12-20T22:50:36.576Z,95984.74
2018-12-20T22:53:02.957Z,95979.98
2018-12-20T22:55:29.348Z,95970.23
2018-12-20T22:57:55.730Z,95957.76
2018-12-20T23:00:22.047Z,95963.91
2018-12-20T23:02:48.430Z,95966.48
2018-12-20T23:05:14.816Z,95971.70
2018-12-20T23:07:41.154Z,95963.71
2018-12-20T23:10:07.554Z,95970.25
2018-12-20T23:12:33.905Z,95971.33
2018-12-20T23:15:00.282Z,95964.59
2018-12-20T23:17:26.689Z,95966.06
2018-12-20T23:19:53.087Z,95973.11
2018-12-20T23:22:19.457Z,95967.30
2018-12-20T23:24:45.783Z,95969.25
2018-12-20T23:27:12.165Z,95964.67
2018-12-20T23:29:38.518Z,95967.34
2018-12-20T23:32:04.887Z,95970.09
2018-12-20T23:34:31.215Z,95976.52
2018-12-20T23:36:57.551Z,95975.31
2018-12-20T23:39:23.902Z,95966.31
2018-12-20T23:41:50.243Z,95967.14
2018-12-20T23:44:16.675Z,95965.75
2018-12-20T23:46:43.004Z,95957.38
2018-12-20T23:49:09.334Z,95958.59
2018-12-20T23:51:35.776Z,95957.30
2018-12-20T23:54:02.081Z,95952.52
2018-12-20T23:56:28.455Z,95956.90
2018-12-20T23:58:54.793Z,95963.36
